sensor_id;sensor_type;location;lat;lon;timestamp;pressure;altitude;pressure_sealevel;temperature;humidity
65659;BME280;60181;53.258;6.932;2023-04-09T00:02:59;102884.01;;;14.23;59.70
65659;BME280;60181;53.258;6.932;2023-04-09T00:07:02;102884.66;;;14.22;59.90
65659;BME280;60181;53.258;6.932;2023-04-09T00:11:06;102885.82;;;14.22;59.63
65659;BME280;60181;53.258;6.932;2023-04-09T00:15:10;102886.67;;;14.21;59.64
65659;BME280;60181;53.258;6.932;2023-04-09T00:19:14;102888.49;;;14.21;59.60
65659;BME280;60181;53.258;6.932;2023-04-09T00:23:18;102887.07;;;14.21;59.77
65659;BME280;60181;53.258;6.932;2023-04-09T00:27:22;102884.35;;;14.21;59.66
65659;BME280;60181;53.258;6.932;2023-04-09T00:31:26;102881.71;;;14.21;59.59
65659;BME280;60181;53.258;6.932;2023-04-09T00:35:30;102878.83;;;14.21;59.79
65659;BME280;60181;53.258;6.932;2023-04-09T00:39:34;102875.78;;;14.21;59.63
65659;BME280;60181;53.258;6.932;2023-04-09T00:43:38;102873.02;;;14.21;59.79
65659;BME280;60181;53.258;6.932;2023-04-09T00:47:42;102869.48;;;14.20;59.85
65659;BME280;60181;53.258;6.932;2023-04-09T00:51:47;102865.84;;;14.20;59.76
65659;BME280;60181;53.258;6.932;2023-04-09T00:55:51;102863.57;;;14.19;59.78
65659;BME280;60181;53.258;6.932;2023-04-09T00:59:54;102861.17;;;14.19;59.69
65659;BME280;60181;53.258;6.932;2023-04-09T01:03:58;102859.20;;;14.19;59.68
65659;BME280;60181;53.258;6.932;2023-04-09T01:08:06;102858.54;;;14.19;59.78
65659;BME280;60181;53.258;6.932;2023-04-09T01:16:11;102858.06;;;14.19;59.77
65659;BME280;60181;53.258;6.932;2023-04-09T01:20:17;102857.67;;;14.20;60.00
65659;BME280;60181;53.258;6.932;2023-04-09T01:32:26;102854.74;;;14.21;59.63
65659;BME280;60181;53.258;6.932;2023-04-09T01:36:30;102851.60;;;14.20;59.74
65659;BME280;60181;53.258;6.932;2023-04-09T01:40:34;102849.37;;;14.20;59.74
65659;BME280;60181;53.258;6.932;2023-04-09T01:44:38;102847.05;;;14.20;59.96
65659;BME280;60181;53.258;6.932;2023-04-09T01:48:43;102844.54;;;14.19;59.93
65659;BME280;60181;53.258;6.932;2023-04-09T01:52:46;102842.54;;;14.19;59.92
65659;BME280;60181;53.258;6.932;2023-04-09T01:56:50;102841.64;;;14.19;59.81
65659;BME280;60181;53.258;6.932;2023-04-09T02:00:56;102841.47;;;14.19;60.15
65659;BME280;60181;53.258;6.932;2023-04-09T02:04:58;102840.58;;;14.19;60.14
65659;BME280;60181;53.258;6.932;2023-04-09T02:09:02;102840.08;;;14.19;60.34
65659;BME280;60181;53.258;6.932;2023-04-09T02:13:06;102839.29;;;14.18;60.42
65659;BME280;60181;53.258;6.932;2023-04-09T02:17:11;102838.57;;;14.17;60.51
65659;BME280;60181;53.258;6.932;2023-04-09T02:21:14;102838.29;;;14.16;60.60
65659;BME280;60181;53.258;6.932;2023-04-09T02:25:20;102837.21;;;14.16;60.53
65659;BME280;60181;53.258;6.932;2023-04-09T02:29:22;102835.97;;;14.15;60.95
65659;BME280;60181;53.258;6.932;2023-04-09T02:33:26;102835.95;;;14.17;61.83
65659;BME280;60181;53.258;6.932;2023-04-09T02:37:30;102835.47;;;14.19;61.87
65659;BME280;60181;53.258;6.932;2023-04-09T02:41:34;102834.03;;;14.20;60.89
65659;BME280;60181;53.258;6.932;2023-04-09T02:45:38;102833.13;;;14.20;61.02
65659;BME280;60181;53.258;6.932;2023-04-09T02:49:42;102831.76;;;14.19;61.13
65659;BME280;60181;53.258;6.932;2023-04-09T02:53:46;102829.15;;;14.18;60.95
65659;BME280;60181;53.258;6.932;2023-04-09T02:57:50;102826.64;;;14.17;60.99
65659;BME280;60181;53.258;6.932;2023-04-09T03:01:54;102824.78;;;14.16;60.97
65659;BME280;60181;53.258;6.932;2023-04-09T03:05:58;102821.72;;;14.16;60.84
65659;BME280;60181;53.258;6.932;2023-04-09T03:10:03;102818.01;;;14.14;60.79
65659;BME280;60181;53.258;6.932;2023-04-09T03:14:06;102815.72;;;14.13;60.81
65659;BME280;60181;53.258;6.932;2023-04-09T03:18:10;102814.49;;;14.12;60.73
65659;BME280;60181;53.258;6.932;2023-04-09T03:22:14;102812.66;;;14.12;60.76
65659;BME280;60181;53.258;6.932;2023-04-09T03:26:18;102809.52;;;14.12;60.67
65659;BME280;60181;53.258;6.932;2023-04-09T03:30:22;102804.46;;;14.11;60.89
65659;BME280;60181;53.258;6.932;2023-04-09T03:34:26;102800.12;;;14.11;60.75
65659;BME280;60181;53.258;6.932;2023-04-09T03:38:30;102796.50;;;14.10;60.83
65659;BME280;60181;53.258;6.932;2023-04-09T03:42:34;102793.43;;;14.10;60.67
65659;BME280;60181;53.258;6.932;2023-04-09T03:46:38;102791.59;;;14.09;60.55
65659;BME280;60181;53.258;6.932;2023-04-09T03:50:42;102790.59;;;14.09;60.71
65659;BME280;60181;53.258;6.932;2023-04-09T03:54:46;102789.84;;;14.09;60.43
65659;BME280;60181;53.258;6.932;2023-04-09T03:58:50;102789.31;;;14.08;60.75
65659;BME280;60181;53.258;6.932;2023-04-09T04:02:54;102788.85;;;14.07;60.60
65659;BME280;60181;53.258;6.932;2023-04-09T04:06:58;102788.10;;;14.07;60.49
65659;BME280;60181;53.258;6.932;2023-04-09T04:11:03;102788.46;;;14.06;60.39
65659;BME280;60181;53.258;6.932;2023-04-09T04:15:07;102787.73;;;14.06;60.44
65659;BME280;60181;53.258;6.932;2023-04-09T04:19:10;102787.40;;;14.06;60.48
65659;BME280;60181;53.258;6.932;2023-04-09T04:23:14;102786.99;;;14.06;60.35
65659;BME280;60181;53.258;6.932;2023-04-09T04:27:18;102786.65;;;14.05;60.33
65659;BME280;60181;53.258;6.932;2023-04-09T04:31:22;102786.77;;;14.05;60.31
65659;BME280;60181;53.258;6.932;2023-04-09T04:35:26;102786.51;;;14.04;60.52
65659;BME280;60181;53.258;6.932;2023-04-09T04:39:30;102785.78;;;14.04;60.69
65659;BME280;60181;53.258;6.932;2023-04-09T04:43:34;102785.16;;;14.04;60.55
65659;BME280;60181;53.258;6.932;2023-04-09T04:47:38;102785.49;;;14.03;60.92
65659;BME280;60181;53.258;6.932;2023-04-09T04:51:42;102787.05;;;14.03;60.65
65659;BME280;60181;53.258;6.932;2023-04-09T04:55:46;102788.90;;;14.03;60.80
65659;BME280;60181;53.258;6.932;2023-04-09T04:59:50;102791.04;;;14.03;60.48
65659;BME280;60181;53.258;6.932;2023-04-09T05:03:54;102793.85;;;14.03;60.67
65659;BME280;60181;53.258;6.932;2023-04-09T05:07:58;102795.98;;;14.03;60.57
65659;BME280;60181;53.258;6.932;2023-04-09T05:12:02;102796.85;;;14.03;60.68
65659;BME280;60181;53.258;6.932;2023-04-09T05:16:06;102797.88;;;14.08;61.15
65659;BME280;60181;53.258;6.932;2023-04-09T05:20:10;102797.83;;;14.12;61.20
65659;BME280;60181;53.258;6.932;2023-04-09T05:24:14;102798.32;;;14.16;61.15
65659;BME280;60181;53.258;6.932;2023-04-09T05:28:18;102799.45;;;14.19;60.92
65659;BME280;60181;53.258;6.932;2023-04-09T05:32:22;102800.95;;;14.21;60.82
65659;BME280;60181;53.258;6.932;2023-04-09T05:36:26;102802.28;;;14.23;60.76
65659;BME280;60181;53.258;6.932;2023-04-09T05:40:30;102803.48;;;14.25;60.74
65659;BME280;60181;53.258;6.932;2023-04-09T05:44:34;102804.61;;;14.26;60.75
65659;BME280;60181;53.258;6.932;2023-04-09T05:48:38;102804.83;;;14.27;60.75
65659;BME280;60181;53.258;6.932;2023-04-09T05:52:42;102805.53;;;14.28;60.71
65659;BME280;60181;53.258;6.932;2023-04-09T05:56:46;102805.51;;;14.29;60.71
65659;BME280;60181;53.258;6.932;2023-04-09T06:00:50;102804.80;;;14.30;60.66
65659;BME280;60181;53.258;6.932;2023-04-09T06:04:54;102803.91;;;14.31;60.64
65659;BME280;60181;53.258;6.932;2023-04-09T06:08:58;102803.41;;;14.30;60.39
65659;BME280;60181;53.258;6.932;2023-04-09T06:13:02;102802.23;;;14.28;60.00
65659;BME280;60181;53.258;6.932;2023-04-09T06:17:06;102800.72;;;14.24;60.08
65659;BME280;60181;53.258;6.932;2023-04-09T06:21:10;102799.21;;;14.19;60.00
65659;BME280;60181;53.258;6.932;2023-04-09T06:25:14;102799.55;;;14.16;59.91
65659;BME280;60181;53.258;6.932;2023-04-09T06:29:18;102801.38;;;14.13;59.76
65659;BME280;60181;53.258;6.932;2023-04-09T06:33:22;102803.42;;;14.10;59.71
65659;BME280;60181;53.258;6.932;2023-04-09T06:37:26;102805.79;;;14.08;59.62
65659;BME280;60181;53.258;6.932;2023-04-09T06:41:30;102808.53;;;14.07;59.46
65659;BME280;60181;53.258;6.932;2023-04-09T06:45:34;102810.79;;;14.05;59.30
65659;BME280;60181;53.258;6.932;2023-04-09T06:49:38;102813.55;;;14.04;59.15
65659;BME280;60181;53.258;6.932;2023-04-09T06:53:42;102815.55;;;14.03;59.71
65659;BME280;60181;53.258;6.932;2023-04-09T06:57:46;102818.23;;;14.02;59.21
65659;BME280;60181;53.258;6.932;2023-04-09T07:01:50;102819.46;;;14.02;59.00
65659;BME280;60181;53.258;6.932;2023-04-09T07:05:54;102819.30;;;14.02;58.80
65659;BME280;60181;53.258;6.932;2023-04-09T07:09:58;102819.38;;;14.03;58.56
65659;BME280;60181;53.258;6.932;2023-04-09T07:14:02;102820.17;;;14.03;58.30
65659;BME280;60181;53.258;6.932;2023-04-09T07:18:06;102821.61;;;14.03;58.05
65659;BME280;60181;53.258;6.932;2023-04-09T07:22:10;102823.75;;;14.03;57.62
65659;BME280;60181;53.258;6.932;2023-04-09T07:26:14;102824.73;;;14.02;57.56
65659;BME280;60181;53.258;6.932;2023-04-09T07:30:18;102826.88;;;14.02;57.31
65659;BME280;60181;53.258;6.932;2023-04-09T07:34:22;102827.29;;;14.02;57.26
65659;BME280;60181;53.258;6.932;2023-04-09T07:38:27;102826.60;;;14.04;57.08
65659;BME280;60181;53.258;6.932;2023-04-09T07:42:30;102826.03;;;14.05;56.85
65659;BME280;60181;53.258;6.932;2023-04-09T07:46:34;102824.61;;;14.07;56.74
65659;BME280;60181;53.258;6.932;2023-04-09T07:50:38;102825.17;;;14.10;56.60
65659;BME280;60181;53.258;6.932;2023-04-09T07:54:42;102826.00;;;14.12;56.52
65659;BME280;60181;53.258;6.932;2023-04-09T07:58:46;102827.34;;;14.13;56.28
65659;BME280;60181;53.258;6.932;2023-04-09T08:02:50;102828.87;;;14.13;56.26
65659;BME280;60181;53.258;6.932;2023-04-09T08:06:54;102830.69;;;14.14;56.09
65659;BME280;60181;53.258;6.932;2023-04-09T08:10:58;102831.57;;;14.15;55.99
65659;BME280;60181;53.258;6.932;2023-04-09T08:15:02;102832.10;;;14.16;55.96
65659;BME280;60181;53.258;6.932;2023-04-09T08:19:06;102831.74;;;14.17;55.86
65659;BME280;60181;53.258;6.932;2023-04-09T08:23:10;102830.48;;;14.20;57.32
65659;BME280;60181;53.258;6.932;2023-04-09T08:27:14;102830.88;;;14.40;61.58
65659;BME280;60181;53.258;6.932;2023-04-09T08:31:18;102830.82;;;14.62;60.53
65659;BME280;60181;53.258;6.932;2023-04-09T08:35:22;102830.48;;;14.74;60.77
65659;BME280;60181;53.258;6.932;2023-04-09T08:39:26;102831.42;;;14.80;61.03
65659;BME280;60181;53.258;6.932;2023-04-09T08:43:31;102832.30;;;14.83;60.42
65659;BME280;60181;53.258;6.932;2023-04-09T08:47:34;102832.65;;;14.88;60.24
65659;BME280;60181;53.258;6.932;2023-04-09T08:51:38;102832.15;;;14.92;59.83
65659;BME280;60181;53.258;6.932;2023-04-09T08:55:44;102831.07;;;14.97;59.83
65659;BME280;60181;53.258;6.932;2023-04-09T08:59:46;102830.02;;;15.03;59.51
65659;BME280;60181;53.258;6.932;2023-04-09T09:03:59;102828.64;;;15.08;59.40
65659;BME280;60181;53.258;6.932;2023-04-09T09:07:54;102826.60;;;15.15;58.94
65659;BME280;60181;53.258;6.932;2023-04-09T09:11:58;102824.06;;;15.21;58.84
65659;BME280;60181;53.258;6.932;2023-04-09T09:16:11;102821.36;;;15.24;59.17
65659;BME280;60181;53.258;6.932;2023-04-09T09:20:17;102818.35;;;15.27;59.51
65659;BME280;60181;53.258;6.932;2023-04-09T09:24:15;102816.72;;;15.32;59.18
65659;BME280;60181;53.258;6.932;2023-04-09T09:28:14;102815.73;;;15.34;59.45
65659;BME280;60181;53.258;6.932;2023-04-09T09:32:18;102813.27;;;15.39;58.94
65659;BME280;60181;53.258;6.932;2023-04-09T09:36:31;102811.08;;;15.42;58.95
65659;BME280;60181;53.258;6.932;2023-04-09T09:40:26;102809.72;;;15.42;59.17
65659;BME280;60181;53.258;6.932;2023-04-09T09:44:31;102807.80;;;15.44;58.88
65659;BME280;60181;53.258;6.932;2023-04-09T09:48:34;102805.57;;;15.48;58.52
65659;BME280;60181;53.258;6.932;2023-04-09T09:52:38;102804.63;;;15.50;58.89
65659;BME280;60181;53.258;6.932;2023-04-09T09:56:42;102804.30;;;15.51;58.97
65659;BME280;60181;53.258;6.932;2023-04-09T10:00:46;102802.40;;;15.54;58.62
65659;BME280;60181;53.258;6.932;2023-04-09T10:04:50;102799.94;;;15.57;58.62
65659;BME280;60181;53.258;6.932;2023-04-09T10:12:58;102793.21;;;15.64;58.28
65659;BME280;60181;53.258;6.932;2023-04-09T10:17:02;102789.61;;;15.67;58.40
65659;BME280;60181;53.258;6.932;2023-04-09T10:21:08;102787.60;;;15.68;58.49
65659;BME280;60181;53.258;6.932;2023-04-09T10:25:10;102785.62;;;15.69;58.64
65659;BME280;60181;53.258;6.932;2023-04-09T10:29:16;102783.92;;;15.71;58.32
65659;BME280;60181;53.258;6.932;2023-04-09T10:33:21;102782.19;;;15.73;58.39
65659;BME280;60181;53.258;6.932;2023-04-09T10:37:23;102781.12;;;15.74;58.55
65659;BME280;60181;53.258;6.932;2023-04-09T10:41:26;102778.97;;;15.74;58.71
65659;BME280;60181;53.258;6.932;2023-04-09T10:45:39;102776.21;;;15.73;58.60
65659;BME280;60181;53.258;6.932;2023-04-09T10:49:40;102773.43;;;15.73;58.59
65659;BME280;60181;53.258;6.932;2023-04-09T10:53:38;102769.26;;;15.73;58.65
65659;BME280;60181;53.258;6.932;2023-04-09T10:57:42;102765.14;;;15.73;58.63
65659;BME280;60181;53.258;6.932;2023-04-09T11:01:52;102762.66;;;15.72;58.72
65659;BME280;60181;53.258;6.932;2023-04-09T11:09:54;102753.94;;;15.74;58.52
65659;BME280;60181;53.258;6.932;2023-04-09T11:13:58;102750.01;;;15.75;58.42
65659;BME280;60181;53.258;6.932;2023-04-09T11:18:02;102746.09;;;15.76;59.01
65659;BME280;60181;53.258;6.932;2023-04-09T11:22:06;102742.65;;;15.77;59.54
65659;BME280;60181;53.258;6.932;2023-04-09T11:26:09;102739.23;;;15.76;59.50
65659;BME280;60181;53.258;6.932;2023-04-09T11:30:14;102735.39;;;15.77;59.23
65659;BME280;60181;53.258;6.932;2023-04-09T11:34:17;102731.88;;;15.77;59.27
65659;BME280;60181;53.258;6.932;2023-04-09T11:38:21;102727.78;;;15.77;59.02
65659;BME280;60181;53.258;6.932;2023-04-09T11:42:29;102724.49;;;15.77;59.10
65659;BME280;60181;53.258;6.932;2023-04-09T11:46:30;102721.58;;;15.77;59.12
65659;BME280;60181;53.258;6.932;2023-04-09T11:50:33;102719.95;;;15.76;59.18
65659;BME280;60181;53.258;6.932;2023-04-09T11:54:37;102717.09;;;15.74;59.15
65659;BME280;60181;53.258;6.932;2023-04-09T11:58:45;102712.96;;;15.74;58.94
65659;BME280;60181;53.258;6.932;2023-04-09T12:02:46;102710.31;;;15.76;58.79
65659;BME280;60181;53.258;6.932;2023-04-09T12:06:50;102707.26;;;15.77;58.85
65659;BME280;60181;53.258;6.932;2023-04-09T12:10:53;102703.12;;;15.77;58.84
65659;BME280;60181;53.258;6.932;2023-04-09T12:14:57;102699.12;;;15.77;58.72
65659;BME280;60181;53.258;6.932;2023-04-09T12:19:02;102696.06;;;15.78;58.78
65659;BME280;60181;53.258;6.932;2023-04-09T12:23:06;102695.03;;;15.77;59.05
65659;BME280;60181;53.258;6.932;2023-04-09T12:27:09;102691.53;;;15.76;59.06
65659;BME280;60181;53.258;6.932;2023-04-09T12:31:13;102689.28;;;15.77;58.87
65659;BME280;60181;53.258;6.932;2023-04-09T12:35:17;102687.18;;;15.79;58.94
65659;BME280;60181;53.258;6.932;2023-04-09T12:39:21;102685.44;;;15.80;58.90
65659;BME280;60181;53.258;6.932;2023-04-09T12:43:25;102684.70;;;15.81;59.07
65659;BME280;60181;53.258;6.932;2023-04-09T12:47:29;102682.71;;;15.80;59.17
65659;BME280;60181;53.258;6.932;2023-04-09T12:51:33;102680.31;;;15.80;59.13
65659;BME280;60181;53.258;6.932;2023-04-09T12:55:37;102678.05;;;15.80;59.07
65659;BME280;60181;53.258;6.932;2023-04-09T12:59:41;102675.07;;;15.80;59.15
65659;BME280;60181;53.258;6.932;2023-04-09T13:03:45;102672.64;;;15.81;59.17
65659;BME280;60181;53.258;6.932;2023-04-09T13:07:49;102671.77;;;15.80;59.41
65659;BME280;60181;53.258;6.932;2023-04-09T13:11:53;102670.95;;;15.80;59.32
65659;BME280;60181;53.258;6.932;2023-04-09T13:15:57;102669.41;;;15.78;59.40
65659;BME280;60181;53.258;6.932;2023-04-09T13:20:01;102667.59;;;15.78;59.20
65659;BME280;60181;53.258;6.932;2023-04-09T13:24:05;102665.44;;;15.80;59.05
65659;BME280;60181;53.258;6.932;2023-04-09T13:28:09;102663.67;;;15.82;59.02
65659;BME280;60181;53.258;6.932;2023-04-09T13:32:13;102661.51;;;15.84;59.12
65659;BME280;60181;53.258;6.932;2023-04-09T13:36:17;102657.47;;;15.84;59.17
65659;BME280;60181;53.258;6.932;2023-04-09T13:40:21;102652.77;;;15.85;59.61
65659;BME280;60181;53.258;6.932;2023-04-09T13:44:25;102649.07;;;15.87;59.62
65659;BME280;60181;53.258;6.932;2023-04-09T13:48:29;102645.09;;;15.88;59.71
65659;BME280;60181;53.258;6.932;2023-04-09T13:52:33;102642.79;;;15.89;59.68
65659;BME280;60181;53.258;6.932;2023-04-09T13:56:38;102639.18;;;15.90;59.65
65659;BME280;60181;53.258;6.932;2023-04-09T14:00:41;102635.97;;;15.90;59.58
65659;BME280;60181;53.258;6.932;2023-04-09T14:04:45;102632.63;;;15.89;59.76
65659;BME280;60181;53.258;6.932;2023-04-09T14:08:49;102628.37;;;15.87;59.77
65659;BME280;60181;53.258;6.932;2023-04-09T14:12:53;102623.49;;;15.87;59.59
65659;BME280;60181;53.258;6.932;2023-04-09T14:16:57;102620.19;;;15.87;59.34
65659;BME280;60181;53.258;6.932;2023-04-09T14:21:01;102617.68;;;15.86;59.41
65659;BME280;60181;53.258;6.932;2023-04-09T14:25:06;102615.98;;;15.86;59.35
65659;BME280;60181;53.258;6.932;2023-04-09T14:29:09;102615.93;;;15.86;59.05
65659;BME280;60181;53.258;6.932;2023-04-09T14:33:13;102614.77;;;15.86;59.25
65659;BME280;60181;53.258;6.932;2023-04-09T14:37:17;102614.40;;;15.85;59.01
65659;BME280;60181;53.258;6.932;2023-04-09T14:41:21;102611.43;;;15.85;59.15
65659;BME280;60181;53.258;6.932;2023-04-09T14:45:25;102607.21;;;15.85;59.03
65659;BME280;60181;53.258;6.932;2023-04-09T14:49:29;102601.68;;;15.85;59.26
65659;BME280;60181;53.258;6.932;2023-04-09T14:53:33;102596.53;;;15.83;59.21
65659;BME280;60181;53.258;6.932;2023-04-09T14:57:38;102592.53;;;15.82;59.06
65659;BME280;60181;53.258;6.932;2023-04-09T15:01:41;102588.82;;;15.82;58.76
65659;BME280;60181;53.258;6.932;2023-04-09T15:05:45;102586.87;;;15.83;58.95
65659;BME280;60181;53.258;6.932;2023-04-09T15:09:49;102584.06;;;15.83;58.92
65659;BME280;60181;53.258;6.932;2023-04-09T15:13:53;102580.37;;;15.84;58.92
65659;BME280;60181;53.258;6.932;2023-04-09T15:17:57;102575.66;;;15.84;58.91
65659;BME280;60181;53.258;6.932;2023-04-09T15:22:01;102568.69;;;15.83;59.15
65659;BME280;60181;53.258;6.932;2023-04-09T15:26:05;102562.49;;;15.83;59.05
65659;BME280;60181;53.258;6.932;2023-04-09T15:30:09;102559.97;;;15.81;59.14
65659;BME280;60181;53.258;6.932;2023-04-09T15:34:13;102559.06;;;15.82;59.38
65659;BME280;60181;53.258;6.932;2023-04-09T15:38:17;102558.19;;;15.83;59.08
65659;BME280;60181;53.258;6.932;2023-04-09T15:42:21;102557.04;;;15.83;59.35
65659;BME280;60181;53.258;6.932;2023-04-09T15:46:25;102555.47;;;15.83;59.37
65659;BME280;60181;53.258;6.932;2023-04-09T15:50:29;102551.95;;;15.84;59.18
65659;BME280;60181;53.258;6.932;2023-04-09T15:54:33;102547.38;;;15.83;59.23
65659;BME280;60181;53.258;6.932;2023-04-09T15:58:37;102544.24;;;15.83;59.33
65659;BME280;60181;53.258;6.932;2023-04-09T16:02:41;102541.83;;;15.83;59.31
65659;BME280;60181;53.258;6.932;2023-04-09T16:06:45;102537.38;;;15.83;59.14
65659;BME280;60181;53.258;6.932;2023-04-09T16:10:49;102531.82;;;15.83;59.29
65659;BME280;60181;53.258;6.932;2023-04-09T16:14:53;102524.98;;;15.83;59.23
65659;BME280;60181;53.258;6.932;2023-04-09T16:18:57;102519.43;;;15.83;59.23
65659;BME280;60181;53.258;6.932;2023-04-09T16:23:01;102513.49;;;15.83;59.21
65659;BME280;60181;53.258;6.932;2023-04-09T16:27:05;102508.28;;;15.83;59.03
65659;BME280;60181;53.258;6.932;2023-04-09T16:31:09;102505.20;;;15.82;59.11
65659;BME280;60181;53.258;6.932;2023-04-09T16:35:13;102503.12;;;15.82;59.15
65659;BME280;60181;53.258;6.932;2023-04-09T16:39:17;102501.27;;;15.83;60.03
65659;BME280;60181;53.258;6.932;2023-04-09T16:43:21;102497.75;;;15.84;59.85
65659;BME280;60181;53.258;6.932;2023-04-09T16:47:25;102493.79;;;15.84;59.71
65659;BME280;60181;53.258;6.932;2023-04-09T16:51:29;102491.47;;;15.84;59.64
65659;BME280;60181;53.258;6.932;2023-04-09T16:55:33;102490.36;;;15.83;59.84
65659;BME280;60181;53.258;6.932;2023-04-09T16:59:37;102490.73;;;15.82;59.61
65659;BME280;60181;53.258;6.932;2023-04-09T17:03:41;102490.81;;;15.82;60.61
65659;BME280;60181;53.258;6.932;2023-04-09T17:07:45;102491.35;;;15.83;60.97
65659;BME280;60181;53.258;6.932;2023-04-09T17:11:49;102491.56;;;15.82;60.75
65659;BME280;60181;53.258;6.932;2023-04-09T17:15:53;102492.88;;;15.81;60.33
65659;BME280;60181;53.258;6.932;2023-04-09T17:19:57;102493.59;;;15.81;60.16
65659;BME280;60181;53.258;6.932;2023-04-09T17:24:01;102492.72;;;15.79;60.16
65659;BME280;60181;53.258;6.932;2023-04-09T17:28:05;102492.48;;;15.78;60.18
65659;BME280;60181;53.258;6.932;2023-04-09T17:32:09;102490.97;;;15.76;60.12
65659;BME280;60181;53.258;6.932;2023-04-09T17:36:13;102490.23;;;15.74;60.07
65659;BME280;60181;53.258;6.932;2023-04-09T17:40:17;102491.02;;;15.73;60.03
65659;BME280;60181;53.258;6.932;2023-04-09T17:44:22;102491.64;;;15.71;60.06
65659;BME280;60181;53.258;6.932;2023-04-09T17:48:25;102492.40;;;15.70;60.08
65659;BME280;60181;53.258;6.932;2023-04-09T17:52:29;102493.85;;;15.68;60.13
65659;BME280;60181;53.258;6.932;2023-04-09T17:56:33;102496.41;;;15.67;60.13
65659;BME280;60181;53.258;6.932;2023-04-09T18:00:38;102498.56;;;15.66;60.68
65659;BME280;60181;53.258;6.932;2023-04-09T18:04:41;102500.24;;;15.65;60.87
65659;BME280;60181;53.258;6.932;2023-04-09T18:08:45;102501.16;;;15.65;60.57
65659;BME280;60181;53.258;6.932;2023-04-09T18:12:49;102501.61;;;15.64;60.46
65659;BME280;60181;53.258;6.932;2023-04-09T18:16:53;102501.55;;;15.62;60.45
65659;BME280;60181;53.258;6.932;2023-04-09T18:20:57;102501.42;;;15.61;60.49
65659;BME280;60181;53.258;6.932;2023-04-09T18:25:01;102501.55;;;15.59;60.54
65659;BME280;60181;53.258;6.932;2023-04-09T18:29:05;102500.77;;;15.56;59.82
65659;BME280;60181;53.258;6.932;2023-04-09T18:33:09;102501.57;;;15.53;58.96
65659;BME280;60181;53.258;6.932;2023-04-09T18:37:13;102502.28;;;15.49;58.30
65659;BME280;60181;53.258;6.932;2023-04-09T18:41:21;102503.00;;;15.44;58.30
65659;BME280;60181;53.258;6.932;2023-04-09T18:45:21;102502.10;;;15.41;56.89
65659;BME280;60181;53.258;6.932;2023-04-09T18:49:25;102501.68;;;15.37;56.20
65659;BME280;60181;53.258;6.932;2023-04-09T18:53:29;102501.16;;;15.33;56.05
65659;BME280;60181;53.258;6.932;2023-04-09T18:57:34;102500.51;;;15.30;56.08
65659;BME280;60181;53.258;6.932;2023-04-09T19:01:37;102500.17;;;15.27;55.89
65659;BME280;60181;53.258;6.932;2023-04-09T19:05:41;102499.65;;;15.24;55.60
65659;BME280;60181;53.258;6.932;2023-04-09T19:09:45;102500.63;;;15.22;55.21
65659;BME280;60181;53.258;6.932;2023-04-09T19:13:49;102502.55;;;15.20;55.07
65659;BME280;60181;53.258;6.932;2023-04-09T19:17:53;102503.63;;;15.18;54.87
65659;BME280;60181;53.258;6.932;2023-04-09T19:21:57;102504.15;;;15.16;54.76
65659;BME280;60181;53.258;6.932;2023-04-09T19:26:01;102504.86;;;15.15;54.59
65659;BME280;60181;53.258;6.932;2023-04-09T19:30:05;102506.35;;;15.13;54.57
65659;BME280;60181;53.258;6.932;2023-04-09T19:34:09;102507.30;;;15.11;54.34
65659;BME280;60181;53.258;6.932;2023-04-09T19:38:13;102507.21;;;15.10;54.17
65659;BME280;60181;53.258;6.932;2023-04-09T19:42:17;102507.09;;;15.08;54.14
65659;BME280;60181;53.258;6.932;2023-04-09T19:46:21;102506.07;;;15.07;54.85
65659;BME280;60181;53.258;6.932;2023-04-09T19:50:25;102505.69;;;15.08;54.05
65659;BME280;60181;53.258;6.932;2023-04-09T19:54:29;102506.47;;;15.07;53.74
65659;BME280;60181;53.258;6.932;2023-04-09T19:58:33;102509.40;;;15.06;53.76
65659;BME280;60181;53.258;6.932;2023-04-09T20:02:37;102510.82;;;15.04;53.68
65659;BME280;60181;53.258;6.932;2023-04-09T20:06:41;102511.15;;;15.02;53.67
65659;BME280;60181;53.258;6.932;2023-04-09T20:10:45;102511.34;;;15.00;53.59
65659;BME280;60181;53.258;6.932;2023-04-09T20:14:49;102511.84;;;14.99;53.45
65659;BME280;60181;53.258;6.932;2023-04-09T20:18:53;102512.71;;;14.97;53.49
65659;BME280;60181;53.258;6.932;2023-04-09T20:22:57;102512.17;;;14.96;53.45
65659;BME280;60181;53.258;6.932;2023-04-09T20:27:01;102511.11;;;14.94;53.36
65659;BME280;60181;53.258;6.932;2023-04-09T20:31:05;102509.57;;;14.93;53.25
65659;BME280;60181;53.258;6.932;2023-04-09T20:35:09;102505.98;;;14.91;53.13
65659;BME280;60181;53.258;6.932;2023-04-09T20:39:13;102501.56;;;14.90;53.10
65659;BME280;60181;53.258;6.932;2023-04-09T20:43:17;102497.78;;;14.89;53.12
65659;BME280;60181;53.258;6.932;2023-04-09T20:47:21;102493.97;;;14.88;53.04
65659;BME280;60181;53.258;6.932;2023-04-09T20:51:25;102490.47;;;14.87;53.06
65659;BME280;60181;53.258;6.932;2023-04-09T20:55:29;102486.72;;;14.86;52.97
65659;BME280;60181;53.258;6.932;2023-04-09T20:59:33;102482.57;;;14.85;52.88
65659;BME280;60181;53.258;6.932;2023-04-09T21:03:37;102480.41;;;14.85;52.72
65659;BME280;60181;53.258;6.932;2023-04-09T21:07:41;102479.80;;;14.84;52.70
65659;BME280;60181;53.258;6.932;2023-04-09T21:11:45;102479.37;;;14.83;52.63
65659;BME280;60181;53.258;6.932;2023-04-09T21:15:49;102477.36;;;14.82;52.71
65659;BME280;60181;53.258;6.932;2023-04-09T21:19:53;102476.00;;;14.82;52.54
65659;BME280;60181;53.258;6.932;2023-04-09T21:23:57;102473.14;;;14.83;52.89
65659;BME280;60181;53.258;6.932;2023-04-09T21:28:01;102470.87;;;14.86;52.64
65659;BME280;60181;53.258;6.932;2023-04-09T21:32:05;102468.90;;;14.88;52.56
65659;BME280;60181;53.258;6.932;2023-04-09T21:36:09;102466.50;;;14.88;52.63